sensor_id;sensor_type;location;lat;lon;timestamp;pressure;altitude;pressure_sealevel;temperature;humidity
35676;BME280;21790;42.668;23.298;2022-10-29T00:01:31;95830.13;;;15.81;43.33
35676;BME280;21790;42.668;23.298;2022-10-29T00:04:01;95840.22;;;15.61;43.90
35676;BME280;21790;42.668;23.298;2022-10-29T00:06:26;95827.69;;;15.56;43.63
35676;BME280;21790;42.668;23.298;2022-10-29T00:08:58;95842.13;;;15.55;44.21
35676;BME280;21790;42.668;23.298;2022-10-29T00:11:25;95821.78;;;15.45;44.41
35676;BME280;21790;42.668;23.298;2022-10-29T00:13:57;95833.09;;;15.41;44.68
35676;BME280;21790;42.668;23.298;2022-10-29T00:16:36;95827.22;;;15.58;43.91
35676;BME280;21790;42.668;23.298;2022-10-29T00:19:03;95824.75;;;15.41;44.41
35676;BME280;21790;42.668;23.298;2022-10-29T00:21:33;95820.88;;;15.57;44.04
35676;BME280;21790;42.668;23.298;2022-10-29T00:23:59;95818.56;;;15.56;44.09
35676;BME280;21790;42.668;23.298;2022-10-29T00:26:28;95817.94;;;15.52;43.98
35676;BME280;21790;42.668;23.298;2022-10-29T00:28:57;95816.09;;;15.48;43.88
35676;BME280;21790;42.668;23.298;2022-10-29T00:31:25;95808.66;;;15.45;43.91
35676;BME280;21790;42.668;23.298;2022-10-29T00:33:52;95813.59;;;15.41;43.87
35676;BME280;21790;42.668;23.298;2022-10-29T00:36:21;95775.56;;;15.11;43.22
35676;BME280;21790;42.668;23.298;2022-10-29T00:38:47;95789.97;;;15.10;44.02
35676;BME280;21790;42.668;23.298;2022-10-29T00:41:18;95808.03;;;15.23;44.08
35676;BME280;21790;42.668;23.298;2022-10-29T00:43:51;95809.75;;;15.30;43.85
35676;BME280;21790;42.668;23.298;2022-10-29T00:46:32;95809.91;;;15.17;44.30
35676;BME280;21790;42.668;23.298;2022-10-29T00:49:01;95812.69;;;15.17;44.64
35676;BME280;21790;42.668;23.298;2022-10-29T00:51:29;95811.31;;;15.03;45.07
35676;BME280;21790;42.668;23.298;2022-10-29T00:54:01;95803.25;;;14.96;45.14
35676;BME280;21790;42.668;23.298;2022-10-29T00:56:44;95798.16;;;14.95;45.15
35676;BME280;21790;42.668;23.298;2022-10-29T00:59:15;95808.06;;;14.78;45.74
35676;BME280;21790;42.668;23.298;2022-10-29T01:01:49;95804.81;;;14.97;45.16
35676;BME280;21790;42.668;23.298;2022-10-29T01:04:17;95800.94;;;14.77;45.58
35676;BME280;21790;42.668;23.298;2022-10-29T01:06:43;95812.34;;;14.70;45.86
35676;BME280;21790;42.668;23.298;2022-10-29T01:09:11;95802.63;;;14.74;45.64
35676;BME280;21790;42.668;23.298;2022-10-29T01:14:29;95795.66;;;15.06;45.27
35676;BME280;21790;42.668;23.298;2022-10-29T01:26:35;95778.66;;;15.31;44.09
35676;BME280;21790;42.668;23.298;2022-10-29T01:31:46;95777.13;;;14.94;44.34
35676;BME280;21790;42.668;23.298;2022-10-29T01:37:13;95771.22;;;14.64;44.81
35676;BME280;21790;42.668;23.298;2022-10-29T01:42:30;95781.63;;;14.82;44.78
35676;BME280;21790;42.668;23.298;2022-10-29T01:45:17;95778.81;;;14.73;45.38
35676;BME280;21790;42.668;23.298;2022-10-29T01:48:11;95776.81;;;14.64;45.42
35676;BME280;21790;42.668;23.298;2022-10-29T01:50:37;95780.47;;;14.52;45.75
35676;BME280;21790;42.668;23.298;2022-10-29T01:53:05;95773.69;;;14.53;45.95
35676;BME280;21790;42.668;23.298;2022-10-29T01:55:32;95768.56;;;14.43;45.96
35676;BME280;21790;42.668;23.298;2022-10-29T01:58:02;95768.66;;;14.30;46.20
35676;BME280;21790;42.668;23.298;2022-10-29T02:06:53;95767.69;;;14.91;43.92
35676;BME280;21790;42.668;23.298;2022-10-29T02:09:33;95763.22;;;14.67;44.67
35676;BME280;21790;42.668;23.298;2022-10-29T02:12:18;95768.91;;;14.63;44.79
35676;BME280;21790;42.668;23.298;2022-10-29T02:14:57;95762.72;;;14.50;44.86
35676;BME280;21790;42.668;23.298;2022-10-29T02:17:30;95755.53;;;14.21;45.43
35676;BME280;21790;42.668;23.298;2022-10-29T02:19:56;95758.31;;;14.21;45.77
35676;BME280;21790;42.668;23.298;2022-10-29T02:22:22;95756.31;;;14.31;45.47
35676;BME280;21790;42.668;23.298;2022-10-29T02:24:49;95761.09;;;14.21;45.79
35676;BME280;21790;42.668;23.298;2022-10-29T02:27:35;95764.25;;;14.42;45.19
35676;BME280;21790;42.668;23.298;2022-10-29T02:30:06;95758.16;;;14.25;44.94
35676;BME280;21790;42.668;23.298;2022-10-29T02:32:34;95764.78;;;14.18;45.31
35676;BME280;21790;42.668;23.298;2022-10-29T02:35:31;95756.06;;;14.38;45.10
35676;BME280;21790;42.668;23.298;2022-10-29T02:37:56;95753.63;;;14.09;45.53
35676;BME280;21790;42.668;23.298;2022-10-29T02:40:22;95750.84;;;14.09;45.75
35676;BME280;21790;42.668;23.298;2022-10-29T02:42:50;95755.00;;;14.05;45.93
35676;BME280;21790;42.668;23.298;2022-10-29T02:45:15;95757.19;;;14.10;45.73
35676;BME280;21790;42.668;23.298;2022-10-29T02:47:41;95749.94;;;14.12;45.76
35676;BME280;21790;42.668;23.298;2022-10-29T02:50:08;95757.78;;;13.96;46.23
35676;BME280;21790;42.668;23.298;2022-10-29T02:52:36;95755.28;;;13.98;46.37
35676;BME280;21790;42.668;23.298;2022-10-29T02:55:02;95744.31;;;13.85;46.49
35676;BME280;21790;42.668;23.298;2022-10-29T02:57:34;95747.88;;;13.95;46.46
35676;BME280;21790;42.668;23.298;2022-10-29T03:00:17;95755.38;;;14.25;46.17
35676;BME280;21790;42.668;23.298;2022-10-29T03:02:48;95746.06;;;14.01;46.74
35676;BME280;21790;42.668;23.298;2022-10-29T03:05:18;95749.91;;;14.03;46.81
35676;BME280;21790;42.668;23.298;2022-10-29T03:07:44;95755.00;;;14.05;46.04
35676;BME280;21790;42.668;23.298;2022-10-29T03:10:10;95749.28;;;13.99;45.97
35676;BME280;21790;42.668;23.298;2022-10-29T03:12:38;95744.50;;;14.00;46.02
35676;BME280;21790;42.668;23.298;2022-10-29T03:15:15;95747.28;;;14.09;45.62
35676;BME280;21790;42.668;23.298;2022-10-29T03:17:46;95749.00;;;14.06;45.54
35676;BME280;21790;42.668;23.298;2022-10-29T03:20:13;95741.47;;;13.76;46.13
35676;BME280;21790;42.668;23.298;2022-10-29T03:22:39;95736.09;;;13.81;46.13
35676;BME280;21790;42.668;23.298;2022-10-29T03:25:05;95737.28;;;13.71;46.39
35676;BME280;21790;42.668;23.298;2022-10-29T03:27:31;95741.00;;;13.68;46.51
35676;BME280;21790;42.668;23.298;2022-10-29T03:29:57;95739.34;;;13.80;46.37
35676;BME280;21790;42.668;23.298;2022-10-29T03:32:23;95739.16;;;13.74;46.49
35676;BME280;21790;42.668;23.298;2022-10-29T03:34:53;95733.06;;;13.98;46.08
35676;BME280;21790;42.668;23.298;2022-10-29T03:37:20;95740.88;;;13.81;45.90
35676;BME280;21790;42.668;23.298;2022-10-29T03:39:50;95734.53;;;13.80;46.27
35676;BME280;21790;42.668;23.298;2022-10-29T03:42:15;95727.41;;;13.70;46.18
35676;BME280;21790;42.668;23.298;2022-10-29T03:44:41;95724.44;;;13.65;46.04
35676;BME280;21790;42.668;23.298;2022-10-29T03:47:11;95731.91;;;13.77;46.02
35676;BME280;21790;42.668;23.298;2022-10-29T03:49:36;95727.19;;;13.56;46.49
35676;BME280;21790;42.668;23.298;2022-10-29T03:52:09;95731.06;;;13.58;46.43
35676;BME280;21790;42.668;23.298;2022-10-29T03:54:36;95732.78;;;13.65;46.14
35676;BME280;21790;42.668;23.298;2022-10-29T03:57:10;95730.16;;;13.61;46.07
35676;BME280;21790;42.668;23.298;2022-10-29T03:59:46;95725.16;;;13.47;46.27
35676;BME280;21790;42.668;23.298;2022-10-29T04:02:23;95730.00;;;13.65;45.92
35676;BME280;21790;42.668;23.298;2022-10-29T04:04:49;95733.13;;;13.36;46.43
35676;BME280;21790;42.668;23.298;2022-10-29T04:07:21;95736.47;;;13.62;45.78
35676;BME280;21790;42.668;23.298;2022-10-29T04:09:52;95733.56;;;13.65;45.62
35676;BME280;21790;42.668;23.298;2022-10-29T04:12:20;95740.72;;;13.45;46.47
35676;BME280;21790;42.668;23.298;2022-10-29T04:14:46;95745.75;;;13.37;46.50
35676;BME280;21790;42.668;23.298;2022-10-29T04:17:31;95735.50;;;13.47;46.51
35676;BME280;21790;42.668;23.298;2022-10-29T04:19:59;95737.34;;;13.50;46.22
35676;BME280;21790;42.668;23.298;2022-10-29T04:22:25;95744.16;;;13.27;46.78
35676;BME280;21790;42.668;23.298;2022-10-29T04:24:51;95752.81;;;13.29;46.76
35676;BME280;21790;42.668;23.298;2022-10-29T04:27:22;95754.78;;;13.50;46.39
35676;BME280;21790;42.668;23.298;2022-10-29T04:29:48;95745.06;;;13.24;46.82
35676;BME280;21790;42.668;23.298;2022-10-29T04:32:17;95756.03;;;13.58;46.20
35676;BME280;21790;42.668;23.298;2022-10-29T04:34:43;95760.75;;;13.70;45.92
35676;BME280;21790;42.668;23.298;2022-10-29T04:37:21;95756.59;;;13.75;45.81
35676;BME280;21790;42.668;23.298;2022-10-29T04:39:49;95753.25;;;13.80;45.70
35676;BME280;21790;42.668;23.298;2022-10-29T04:42:22;95755.19;;;13.70;45.45
35676;BME280;21790;42.668;23.298;2022-10-29T04:45:01;95741.63;;;13.72;45.37
35676;BME280;21790;42.668;23.298;2022-10-29T04:47:28;95758.03;;;13.79;45.28
35676;BME280;21790;42.668;23.298;2022-10-29T04:52:44;95762.03;;;13.78;44.88
35676;BME280;21790;42.668;23.298;2022-10-29T04:55:15;95762.03;;;13.78;44.70
35676;BME280;21790;42.668;23.298;2022-10-29T04:57:49;95754.69;;;13.63;45.31
35676;BME280;21790;42.668;23.298;2022-10-29T05:00:15;95752.22;;;13.65;45.23
35676;BME280;21790;42.668;23.298;2022-10-29T05:02:41;95754.63;;;13.23;46.23
35676;BME280;21790;42.668;23.298;2022-10-29T05:08:03;95726.97;;;13.41;46.16
35676;BME280;21790;42.668;23.298;2022-10-29T05:10:35;95748.84;;;13.70;45.85
35676;BME280;21790;42.668;23.298;2022-10-29T05:13:03;95749.84;;;13.54;45.82
35676;BME280;21790;42.668;23.298;2022-10-29T05:15:42;95754.13;;;13.77;45.54
35676;BME280;21790;42.668;23.298;2022-10-29T05:18:15;95756.63;;;13.53;46.43
35676;BME280;21790;42.668;23.298;2022-10-29T05:20:40;95747.53;;;13.83;54.10
35676;BME280;21790;42.668;23.298;2022-10-29T05:23:07;95736.16;;;14.67;47.93
35676;BME280;21790;42.668;23.298;2022-10-29T05:25:35;95747.91;;;14.98;44.54
35676;BME280;21790;42.668;23.298;2022-10-29T05:30:28;95767.63;;;15.64;43.46
35676;BME280;21790;42.668;23.298;2022-10-29T05:32:53;95757.81;;;15.87;45.14
35676;BME280;21790;42.668;23.298;2022-10-29T05:35:19;95756.63;;;16.36;44.25
35676;BME280;21790;42.668;23.298;2022-10-29T05:37:52;95761.13;;;16.66;40.09
35676;BME280;21790;42.668;23.298;2022-10-29T05:40:19;95763.16;;;16.32;40.52
35676;BME280;21790;42.668;23.298;2022-10-29T05:42:45;95767.53;;;16.24;40.72
35676;BME280;21790;42.668;23.298;2022-10-29T05:45:10;95762.47;;;16.47;40.20
35676;BME280;21790;42.668;23.298;2022-10-29T05:47:36;95773.41;;;16.26;40.70
35676;BME280;21790;42.668;23.298;2022-10-29T05:50:02;95770.66;;;16.50;40.43
35676;BME280;21790;42.668;23.298;2022-10-29T05:52:27;95767.72;;;16.45;40.86
35676;BME280;21790;42.668;23.298;2022-10-29T05:54:53;95775.31;;;16.44;40.93
35676;BME280;21790;42.668;23.298;2022-10-29T05:57:19;95777.69;;;16.37;41.14
35676;BME280;21790;42.668;23.298;2022-10-29T05:59:45;95774.56;;;16.44;41.13
35676;BME280;21790;42.668;23.298;2022-10-29T06:02:11;95771.06;;;16.58;40.95
35676;BME280;21790;42.668;23.298;2022-10-29T06:04:36;95775.44;;;16.97;40.40
35676;BME280;21790;42.668;23.298;2022-10-29T06:07:02;95770.75;;;17.03;43.91
35676;BME280;21790;42.668;23.298;2022-10-29T06:09:28;95779.44;;;17.73;41.00
35676;BME280;21790;42.668;23.298;2022-10-29T06:11:54;95779.59;;;17.55;40.86
35676;BME280;21790;42.668;23.298;2022-10-29T06:14:19;95770.88;;;17.77;39.70
35676;BME280;21790;42.668;23.298;2022-10-29T06:16:45;95786.00;;;17.70;39.67
35676;BME280;21790;42.668;23.298;2022-10-29T06:19:23;95779.63;;;17.84;41.45
35676;BME280;21790;42.668;23.298;2022-10-29T06:27:42;95791.84;;;18.51;39.21
35676;BME280;21790;42.668;23.298;2022-10-29T06:30:09;95785.75;;;18.67;38.79
35676;BME280;21790;42.668;23.298;2022-10-29T06:32:35;95784.22;;;18.87;38.78
35676;BME280;21790;42.668;23.298;2022-10-29T06:35:00;95783.09;;;19.19;38.21
35676;BME280;21790;42.668;23.298;2022-10-29T06:37:28;95772.69;;;19.45;38.07
35676;BME280;21790;42.668;23.298;2022-10-29T06:39:58;95777.06;;;19.46;37.81
35676;BME280;21790;42.668;23.298;2022-10-29T06:45:13;95778.91;;;19.55;37.55
35676;BME280;21790;42.668;23.298;2022-10-29T06:47:44;95779.56;;;19.70;37.12
35676;BME280;21790;42.668;23.298;2022-10-29T06:53:14;95783.13;;;19.71;37.96
35676;BME280;21790;42.668;23.298;2022-10-29T06:55:40;95774.94;;;19.93;37.77
35676;BME280;21790;42.668;23.298;2022-10-29T06:58:15;95775.44;;;20.23;38.40
35676;BME280;21790;42.668;23.298;2022-10-29T07:00:41;95776.69;;;20.53;38.72
35676;BME280;21790;42.668;23.298;2022-10-29T07:03:16;95771.97;;;20.76;37.95
35676;BME280;21790;42.668;23.298;2022-10-29T07:05:42;95770.97;;;20.84;37.41
35676;BME280;21790;42.668;23.298;2022-10-29T07:08:08;95779.94;;;20.83;37.22
35676;BME280;21790;42.668;23.298;2022-10-29T07:10:33;95780.81;;;21.11;36.56
35676;BME280;21790;42.668;23.298;2022-10-29T07:12:59;95780.19;;;20.91;36.53
35676;BME280;21790;42.668;23.298;2022-10-29T07:15:24;95794.78;;;20.89;36.29
35676;BME280;21790;42.668;23.298;2022-10-29T07:18:00;95789.03;;;21.15;36.91
35676;BME280;21790;42.668;23.298;2022-10-29T07:20:26;95789.03;;;21.15;35.40
35676;BME280;21790;42.668;23.298;2022-10-29T07:22:52;95787.41;;;20.97;35.56
35676;BME280;21790;42.668;23.298;2022-10-29T07:25:17;95790.50;;;21.05;37.22
35676;BME280;21790;42.668;23.298;2022-10-29T07:27:43;95790.31;;;21.19;35.94
35676;BME280;21790;42.668;23.298;2022-10-29T07:30:11;95792.44;;;21.36;36.52
35676;BME280;21790;42.668;23.298;2022-10-29T07:32:36;95786.38;;;21.59;35.53
35676;BME280;21790;42.668;23.298;2022-10-29T07:35:02;95789.19;;;21.59;35.33
35676;BME280;21790;42.668;23.298;2022-10-29T07:37:27;95789.38;;;21.45;35.00
35676;BME280;21790;42.668;23.298;2022-10-29T07:39:53;95784.03;;;21.47;36.72
35676;BME280;21790;42.668;23.298;2022-10-29T07:42:18;95785.84;;;21.61;36.15
35676;BME280;21790;42.668;23.298;2022-10-29T07:44:43;95781.22;;;21.47;35.09
35676;BME280;21790;42.668;23.298;2022-10-29T07:47:09;95775.09;;;21.48;35.60
35676;BME280;21790;42.668;23.298;2022-10-29T07:49:34;95773.56;;;21.47;35.07
35676;BME280;21790;42.668;23.298;2022-10-29T07:51:59;95777.94;;;21.65;34.94
35676;BME280;21790;42.668;23.298;2022-10-29T07:54:25;95778.97;;;21.84;35.29
35676;BME280;21790;42.668;23.298;2022-10-29T07:56:51;95775.44;;;22.00;35.10
35676;BME280;21790;42.668;23.298;2022-10-29T07:59:16;95782.13;;;22.14;35.45
35676;BME280;21790;42.668;23.298;2022-10-29T08:01:43;95784.66;;;22.29;35.18
35676;BME280;21790;42.668;23.298;2022-10-29T08:04:08;95785.66;;;22.48;35.19
35676;BME280;21790;42.668;23.298;2022-10-29T08:06:33;95776.97;;;22.46;34.82
35676;BME280;21790;42.668;23.298;2022-10-29T08:08:59;95779.47;;;22.66;34.94
35676;BME280;21790;42.668;23.298;2022-10-29T08:11:24;95775.88;;;22.82;34.23
35676;BME280;21790;42.668;23.298;2022-10-29T08:13:51;95770.47;;;22.96;33.92
35676;BME280;21790;42.668;23.298;2022-10-29T08:16:17;95768.41;;;23.02;33.34
35676;BME280;21790;42.668;23.298;2022-10-29T08:18:42;95770.94;;;23.11;33.20
35676;BME280;21790;42.668;23.298;2022-10-29T08:21:10;95759.06;;;23.29;33.17
35676;BME280;21790;42.668;23.298;2022-10-29T08:23:35;95763.88;;;23.40;33.69
35676;BME280;21790;42.668;23.298;2022-10-29T08:26:00;95752.06;;;23.41;32.99
35676;BME280;21790;42.668;23.298;2022-10-29T08:28:26;95756.88;;;23.57;32.62
35676;BME280;21790;42.668;23.298;2022-10-29T08:30:52;95762.94;;;23.72;32.85
35676;BME280;21790;42.668;23.298;2022-10-29T08:33:17;95754.94;;;23.82;32.55
35676;BME280;21790;42.668;23.298;2022-10-29T08:35:44;95759.84;;;24.06;32.32
35676;BME280;21790;42.668;23.298;2022-10-29T08:38:09;95752.34;;;24.20;31.91
35676;BME280;21790;42.668;23.298;2022-10-29T08:45:33;95746.03;;;24.38;31.88
35676;BME280;21790;42.668;23.298;2022-10-29T08:48:11;95741.06;;;24.44;31.29
35676;BME280;21790;42.668;23.298;2022-10-29T08:50:42;95738.69;;;24.53;31.45
35676;BME280;21790;42.668;23.298;2022-10-29T08:53:16;95745.00;;;24.65;30.96
35676;BME280;21790;42.668;23.298;2022-10-29T08:55:42;95733.00;;;24.78;31.09
35676;BME280;21790;42.668;23.298;2022-10-29T09:00:43;95737.47;;;24.97;30.29
35676;BME280;21790;42.668;23.298;2022-10-29T09:03:09;95735.34;;;25.04;30.66
35676;BME280;21790;42.668;23.298;2022-10-29T09:05:37;95732.97;;;25.08;30.25
35676;BME280;21790;42.668;23.298;2022-10-29T09:08:28;95727.78;;;25.30;30.29
35676;BME280;21790;42.668;23.298;2022-10-29T09:29:14;95713.50;;;25.92;29.47
35676;BME280;21790;42.668;23.298;2022-10-29T09:32:01;95700.56;;;25.97;28.69
35676;BME280;21790;42.668;23.298;2022-10-29T09:36:53;95708.13;;;26.07;28.36
35676;BME280;21790;42.668;23.298;2022-10-29T09:39:31;95698.06;;;26.25;28.53
35676;BME280;21790;42.668;23.298;2022-10-29T09:41:57;95705.41;;;26.15;29.23
35676;BME280;21790;42.668;23.298;2022-10-29T09:44:32;95699.06;;;26.28;28.70
35676;BME280;21790;42.668;23.298;2022-10-29T09:47:08;95696.44;;;26.43;28.80
35676;BME280;21790;42.668;23.298;2022-10-29T09:49:51;95695.72;;;26.55;28.42
35676;BME280;21790;42.668;23.298;2022-10-29T09:52:22;95689.16;;;26.74;28.15
35676;BME280;21790;42.668;23.298;2022-10-29T09:54:48;95680.88;;;26.76;27.33
35676;BME280;21790;42.668;23.298;2022-10-29T09:57:16;95680.00;;;26.67;27.17
35676;BME280;21790;42.668;23.298;2022-10-29T09:59:44;95677.38;;;26.70;27.57
35676;BME280;21790;42.668;23.298;2022-10-29T10:04:43;95678.38;;;26.72;27.26
35676;BME280;21790;42.668;23.298;2022-10-29T10:07:10;95668.88;;;26.70;27.35
35676;BME280;21790;42.668;23.298;2022-10-29T10:12:24;95657.97;;;26.74;27.50
35676;BME280;21790;42.668;23.298;2022-10-29T10:15:00;95653.50;;;26.91;27.58
35676;BME280;21790;42.668;23.298;2022-10-29T10:17:26;95648.47;;;26.84;27.05
35676;BME280;21790;42.668;23.298;2022-10-29T10:19:51;95644.13;;;26.83;27.90
35676;BME280;21790;42.668;23.298;2022-10-29T10:22:20;95638.03;;;26.92;27.38
35676;BME280;21790;42.668;23.298;2022-10-29T10:24:46;95634.53;;;26.99;27.14
35676;BME280;21790;42.668;23.298;2022-10-29T10:29:43;95626.53;;;27.11;27.68
35676;BME280;21790;42.668;23.298;2022-10-29T10:32:15;95616.81;;;27.06;27.37
35676;BME280;21790;42.668;23.298;2022-10-29T10:34:40;95617.38;;;27.39;27.08
35676;BME280;21790;42.668;23.298;2022-10-29T10:39:41;95616.16;;;27.47;27.01
35676;BME280;21790;42.668;23.298;2022-10-29T10:42:17;95606.91;;;27.34;27.14
35676;BME280;21790;42.668;23.298;2022-10-29T10:45:10;95607.34;;;27.38;27.17
35676;BME280;21790;42.668;23.298;2022-10-29T10:47:29;95602.88;;;27.29;26.99
35676;BME280;21790;42.668;23.298;2022-10-29T10:52:40;95592.44;;;27.24;26.98
35676;BME280;21790;42.668;23.298;2022-10-29T10:55:15;95586.75;;;27.24;27.53
35676;BME280;21790;42.668;23.298;2022-10-29T10:57:47;95586.41;;;26.67;27.17
35676;BME280;21790;42.668;23.298;2022-10-29T11:00:18;95586.44;;;26.94;27.01
35676;BME280;21790;42.668;23.298;2022-10-29T11:02:59;95573.38;;;27.12;27.42
35676;BME280;21790;42.668;23.298;2022-10-29T11:05:33;95572.75;;;27.05;27.16
35676;BME280;21790;42.668;23.298;2022-10-29T11:08:03;95569.03;;;27.11;27.16
35676;BME280;21790;42.668;23.298;2022-10-29T11:10:39;95561.97;;;27.25;26.92
35676;BME280;21790;42.668;23.298;2022-10-29T11:13:09;95571.59;;;27.22;27.11
35676;BME280;21790;42.668;23.298;2022-10-29T11:15:38;95564.91;;;26.98;26.67
35676;BME280;21790;42.668;23.298;2022-10-29T11:18:10;95568.22;;;26.89;26.75
35676;BME280;21790;42.668;23.298;2022-10-29T11:20:38;95550.19;;;27.00;26.88
35676;BME280;21790;42.668;23.298;2022-10-29T11:23:19;95551.41;;;26.91;27.19
35676;BME280;21790;42.668;23.298;2022-10-29T11:25:50;95537.84;;;26.84;26.99
35676;BME280;21790;42.668;23.298;2022-10-29T11:28:19;95534.38;;;26.91;26.61
35676;BME280;21790;42.668;23.298;2022-10-29T11:30:49;95537.66;;;26.82;26.23
35676;BME280;21790;42.668;23.298;2022-10-29T11:36:05;95525.97;;;26.86;26.52
35676;BME280;21790;42.668;23.298;2022-10-29T11:38:47;95525.19;;;26.98;26.72
35676;BME280;21790;42.668;23.298;2022-10-29T11:43:51;95520.16;;;27.04;26.53
35676;BME280;21790;42.668;23.298;2022-10-29T11:49:08;95508.94;;;26.99;25.86
35676;BME280;21790;42.668;23.298;2022-10-29T12:01:50;95496.75;;;26.17;24.67
35676;BME280;21790;42.668;23.298;2022-10-29T12:04:53;95498.72;;;26.09;23.86
35676;BME280;21790;42.668;23.298;2022-10-29T12:07:57;95487.81;;;26.40;24.76
35676;BME280;21790;42.668;23.298;2022-10-29T12:19:18;95480.44;;;26.23;25.16
35676;BME280;21790;42.668;23.298;2022-10-29T12:26:58;95469.19;;;25.92;25.54
35676;BME280;21790;42.668;23.298;2022-10-29T12:29:30;95460.16;;;25.80;25.50
35676;BME280;21790;42.668;23.298;2022-10-29T12:32:06;95453.06;;;26.13;25.59
35676;BME280;21790;42.668;23.298;2022-10-29T12:34:36;95464.94;;;26.11;25.58
35676;BME280;21790;42.668;23.298;2022-10-29T12:39:55;95456.41;;;26.38;25.26
35676;BME280;21790;42.668;23.298;2022-10-29T12:42:23;95455.41;;;26.48;25.09
35676;BME280;21790;42.668;23.298;2022-10-29T12:45:05;95458.13;;;26.54;25.27
35676;BME280;21790;42.668;23.298;2022-10-29T12:47:41;95450.13;;;26.65;25.55
35676;BME280;21790;42.668;23.298;2022-10-29T12:50:19;95451.94;;;26.76;25.47
35676;BME280;21790;42.668;23.298;2022-10-29T12:53:02;95449.09;;;26.76;24.99
35676;BME280;21790;42.668;23.298;2022-10-29T12:55:30;95444.06;;;26.82;25.16
35676;BME280;21790;42.668;23.298;2022-10-29T12:57:56;95443.56;;;26.71;24.82
35676;BME280;21790;42.668;23.298;2022-10-29T13:02:47;95445.84;;;26.72;24.53
35676;BME280;21790;42.668;23.298;2022-10-29T13:05:15;95439.13;;;26.62;24.80
35676;BME280;21790;42.668;23.298;2022-10-29T13:15:21;95427.03;;;25.88;25.93
35676;BME280;21790;42.668;23.298;2022-10-29T13:17:48;95420.56;;;26.14;26.26
35676;BME280;21790;42.668;23.298;2022-10-29T13:27:55;95415.63;;;25.67;25.51
35676;BME280;21790;42.668;23.298;2022-10-29T13:32:46;95406.16;;;25.78;25.79
35676;BME280;21790;42.668;23.298;2022-10-29T13:42:54;95407.63;;;26.05;25.57
35676;BME280;21790;42.668;23.298;2022-10-29T13:45:21;95404.03;;;25.92;25.44
35676;BME280;21790;42.668;23.298;2022-10-29T13:47:47;95399.94;;;25.79;25.81
35676;BME280;21790;42.668;23.298;2022-10-29T13:50:17;95399.16;;;25.53;25.95
35676;BME280;21790;42.668;23.298;2022-10-29T13:52:45;95394.94;;;25.72;25.81
35676;BME280;21790;42.668;23.298;2022-10-29T13:55:16;95400.00;;;25.48;25.98
35676;BME280;21790;42.668;23.298;2022-10-29T13:58:11;95400.16;;;25.68;25.32
35676;BME280;21790;42.668;23.298;2022-10-29T14:00:41;95388.19;;;25.62;26.10
35676;BME280;21790;42.668;23.298;2022-10-29T14:03:15;95388.97;;;25.63;26.41
35676;BME280;21790;42.668;23.298;2022-10-29T14:05:51;95385.47;;;25.57;25.73
35676;BME280;21790;42.668;23.298;2022-10-29T14:08:33;95391.56;;;25.61;24.70
35676;BME280;21790;42.668;23.298;2022-10-29T14:11:22;95384.44;;;25.54;24.69
35676;BME280;21790;42.668;23.298;2022-10-29T14:13:52;95381.13;;;25.56;24.54
35676;BME280;21790;42.668;23.298;2022-10-29T14:16:26;95386.25;;;25.57;24.23
35676;BME280;21790;42.668;23.298;2022-10-29T14:18:53;95393.22;;;25.11;24.46
35676;BME280;21790;42.668;23.298;2022-10-29T14:21:27;95386.50;;;25.54;24.03
35676;BME280;21790;42.668;23.298;2022-10-29T14:24:05;95381.09;;;25.95;23.51
35676;BME280;21790;42.668;23.298;2022-10-29T14:26:36;95381.91;;;26.03;23.46
35676;BME280;21790;42.668;23.298;2022-10-29T14:29:31;95387.22;;;26.20;23.13
35676;BME280;21790;42.668;23.298;2022-10-29T14:32:11;95381.78;;;26.22;23.25
35676;BME280;21790;42.668;23.298;2022-10-29T14:34:37;95381.69;;;26.14;23.33
35676;BME280;21790;42.668;23.298;2022-10-29T14:37:11;95384.50;;;26.14;23.16
35676;BME280;21790;42.668;23.298;2022-10-29T14:40:00;95385.41;;;26.09;23.02
35676;BME280;21790;42.668;23.298;2022-10-29T14:42:31;95387.50;;;25.82;23.61
35676;BME280;21790;42.668;23.298;2022-10-29T14:45:02;95379.59;;;25.68;23.72
35676;BME280;21790;42.668;23.298;2022-10-29T14:47:31;95385.34;;;25.75;23.62
35676;BME280;21790;42.668;23.298;2022-10-29T14:49:58;95385.13;;;25.73;23.79
35676;BME280;21790;42.668;23.298;2022-10-29T14:52:36;95388.69;;;25.34;23.26
35676;BME280;21790;42.668;23.298;2022-10-29T14:55:30;95384.38;;;24.88;23.38
35676;BME280;21790;42.668;23.298;2022-10-29T14:58:04;95382.06;;;24.87;24.02
35676;BME280;21790;42.668;23.298;2022-10-29T15:00:34;95381.31;;;24.86;24.39
35676;BME280;21790;42.668;23.298;2022-10-29T15:03:02;95382.38;;;24.83;24.28
35676;BME280;21790;42.668;23.298;2022-10-29T15:05:33;95382.88;;;24.69;27.29
35676;BME280;21790;42.668;23.298;2022-10-29T15:10:56;95385.56;;;24.61;25.31
35676;BME280;21790;42.668;23.298;2022-10-29T15:13:23;95378.75;;;24.38;26.03
35676;BME280;21790;42.668;23.298;2022-10-29T15:16:38;95384.69;;;24.34;24.77
35676;BME280;21790;42.668;23.298;2022-10-29T15:18:49;95387.53;;;24.34;24.47
35676;BME280;21790;42.668;23.298;2022-10-29T15:21:25;95389.50;;;24.39;24.39
35676;BME280;21790;42.668;23.298;2022-10-29T15:23:56;95386.63;;;24.26;24.50
35676;BME280;21790;42.668;23.298;2022-10-29T15:26:23;95393.00;;;24.08;24.83
35676;BME280;21790;42.668;23.298;2022-10-29T15:28:51;95394.94;;;24.00;25.09
35676;BME280;21790;42.668;23.298;2022-10-29T15:33:51;95391.47;;;23.88;24.94
35676;BME280;21790;42.668;23.298;2022-10-29T15:36:17;95393.13;;;23.59;25.28
35676;BME280;21790;42.668;23.298;2022-10-29T15:39:07;95393.75;;;23.71;25.38
35676;BME280;21790;42.668;23.298;2022-10-29T15:41:42;95399.22;;;23.63;25.37
35676;BME280;21790;42.668;23.298;2022-10-29T15:44:45;95396.72;;;23.60;25.63